Cottonwood, Alabama
Current Conditions -  °F | °C
As of 3:53 PM on Saturday 25 Oct 2014 (Local Time) from KMAI Reporting Station
Clear Clear  
Wind Chill: 79°   Ceiling: Unl
Heat Index: 79°   Visibility: 10mi
Dew Point: 45°   Wind: 10mph
Humidity: 30%   Direction: 310°NW
Pressure: 30"   Gusts: NA
Location:  31.05°N, 85.3°W
Report Text: KMAI 252053Z AUTO 31009KT 10SM CLR 26/07 A3000 RMK AO2 SLP156 T02610072 56012 $
Loading
Personal Weather Stations






























Interactive Weather Map
Tropical Storm Tracking
New forecast layout! Learn more

10-Day Weather Forecast

Advertisements
Track Severe Weather on mobile